Time;durP1;ratioP1;P1;durP2;ratioP2;P2;SDS_P1;SDS_P2;PMS_P1;PMS_P2;Temp;Humidity;BMP_temperature;BMP_pressure;BME280_temperature;BME280_humidity;BME280_pressure;Samples;Min_cycle;Max_cycle;Signal;HPM_P1;HPM_P2
2022/12/07 00:01:29;;;;;;;21.45;3.85;;;15.40;99.90;;;;;;5033872;28;20024;-79
2022/12/07 00:04:04;;;;;;;21.83;3.80;;;15.40;99.90;;;;;;5051609;28;20486;-79
2022/12/07 00:06:35;;;;;;;25.20;4.03;;;15.40;99.90;;;;;;5033650;28;20446;-79
2022/12/07 00:09:04;;;;;;;13.80;3.55;;;15.40;99.90;;;;;;5033386;28;20033;-78
2022/12/07 00:11:34;;;;;;;24.95;4.10;;;15.30;99.90;;;;;;5051877;28;20029;-78
2022/12/07 00:14:04;;;;;;;28.45;3.97;;;15.30;99.90;;;;;;5051939;28;20021;-79
2022/12/07 00:16:32;;;;;;;21.67;3.78;;;15.30;99.90;;;;;;5051112;28;20032;-78
2022/12/07 00:18:59;;;;;;;25.63;4.60;;;15.20;99.90;;;;;;5033490;28;20025;-78
2022/12/07 00:21:31;;;;;;;28.63;4.75;;;15.20;99.90;;;;;;5051818;28;20487;-79
2022/12/07 00:24:01;;;;;;;26.45;4.25;;;15.20;99.90;;;;;;5051733;28;20079;-79
2022/12/07 00:26:36;;;;;;;23.88;4.18;;;15.20;99.90;;;;;;5030818;28;20030;-79
2022/12/07 00:29:07;;;;;;;29.83;5.32;;;15.10;99.90;;;;;;5030159;28;20537;-79
2022/12/07 00:31:38;;;;;;;29.60;4.10;;;15.20;99.90;;;;;;5031504;28;20492;-79
2022/12/07 00:34:07;;;;;;;32.17;4.57;;;15.20;99.90;;;;;;5031414;28;20025;-79
2022/12/07 00:36:35;;;;;;;20.83;3.55;;;15.20;99.90;;;;;;5031703;28;20044;-79
2022/12/07 00:39:02;;;;;;;28.73;4.60;;;15.30;99.90;;;;;;5031522;28;20021;-78
2022/12/07 00:41:29;;;;;;;;;;;15.30;99.90;;;;;;5031747;28;20036;-79
2022/12/07 00:43:57;;;;;;;33.88;4.43;;;15.30;99.90;;;;;;5031601;28;19905;-79
2022/12/07 00:46:25;;;;;;;14.70;4.38;;;15.30;99.90;;;;;;5013345;28;20029;-79
2022/12/07 00:48:54;;;;;;;27.25;4.03;;;15.30;99.90;;;;;;5013694;28;20033;-79
2022/12/07 00:51:22;;;;;;;19.80;3.85;;;15.30;99.90;;;;;;5031129;28;20080;-79
2022/12/07 00:53:48;;;;;;;26.85;4.90;;;15.20;99.90;;;;;;5031426;28;20033;-79
2022/12/07 00:56:26;;;;;;;24.80;4.88;;;15.20;99.90;;;;;;5013539;28;20030;-79
2022/12/07 00:58:56;;;;;;;23.67;4.00;;;15.20;99.90;;;;;;5031087;28;20366;-79
2022/12/07 01:01:23;;;;;;;27.52;5.00;;;15.20;99.90;;;;;;5030388;28;20042;-79
2022/12/07 01:03:53;;;;;;;27.08;4.82;;;15.20;99.90;;;;;;5030259;28;20632;-79
2022/12/07 01:06:22;;;;;;;24.88;4.28;;;15.30;99.90;;;;;;5030842;28;20022;-79
2022/12/07 01:08:48;;;;;;;28.10;4.82;;;15.30;99.90;;;;;;5030588;28;20037;-78
2022/12/07 01:11:17;;;;;;;28.83;4.20;;;15.30;99.90;;;;;;5030894;28;20038;-79
2022/12/07 01:13:46;;;;;;;33.15;4.72;;;15.30;99.90;;;;;;5012875;28;20406;-76
2022/12/07 01:16:15;;;;;;;18.05;3.80;;;15.30;99.90;;;;;;5007225;28;20391;-79
2022/12/07 01:18:45;;;;;;;26.70;4.28;;;15.30;99.90;;;;;;5042684;28;20103;-74
2022/12/07 01:21:15;;;;;;;31.08;4.50;;;15.30;99.90;;;;;;5046919;28;20025;-78
2022/12/07 01:23:42;;;;;;;27.02;4.57;;;15.30;99.90;;;;;;5048367;28;20044;-74
2022/12/07 01:26:12;;;;;;;22.27;4.53;;;15.30;99.90;;;;;;5050103;28;20025;-75
2022/12/07 01:28:39;;;;;;;26.65;4.10;;;15.30;99.90;;;;;;5046093;28;20366;-78
2022/12/07 01:31:14;;;;;;;25.42;4.30;;;15.30;99.90;;;;;;5044678;28;20037;-73
2022/12/07 01:33:42;;;;;;;23.92;4.65;;;15.30;99.90;;;;;;5037409;28;20115;-74
2022/12/07 01:36:15;;;;;;;23.85;4.22;;;15.30;99.90;;;;;;5053405;28;20426;-78
2022/12/07 01:38:42;;;;;;;35.53;5.32;;;15.30;99.90;;;;;;5053995;28;20249;-78
2022/12/07 01:41:08;;;;;;;28.45;4.85;;;15.20;99.90;;;;;;5053823;28;20099;-78
2022/12/07 01:43:36;;;;;;;32.20;4.80;;;15.20;99.90;;;;;;5053573;28;20031;-78
2022/12/07 01:46:05;;;;;;;34.25;5.53;;;15.20;99.90;;;;;;5053729;28;20031;-78
2022/12/07 01:48:35;;;;;;;24.80;4.32;;;15.20;99.90;;;;;;5053643;28;20024;-77
2022/12/07 01:51:09;;;;;;;21.27;5.20;;;15.20;99.90;;;;;;5053504;28;20367;-77
2022/12/07 01:53:40;;;;;;;29.88;4.90;;;15.20;99.90;;;;;;5035412;28;20032;-79
2022/12/07 01:56:12;;;;;;;33.92;5.07;;;15.20;99.90;;;;;;5053609;28;20029;-77
2022/12/07 01:58:40;;;;;;;29.85;6.25;;;15.20;99.90;;;;;;5053794;28;20083;-79
2022/12/07 02:01:07;;;;;;;35.08;5.03;;;15.20;99.90;;;;;;5053347;28;20025;-78
2022/12/07 02:03:42;;;;;;;27.33;5.00;;;15.10;99.90;;;;;;5053191;28;20087;-77
2022/12/07 02:06:13;;;;;;;31.48;6.00;;;15.10;99.90;;;;;;5053301;28;20078;-78
2022/12/07 02:08:43;;;;;;;33.33;6.68;;;15.10;99.90;;;;;;5053179;28;20025;-78
2022/12/07 02:11:10;;;;;;;26.92;5.07;;;15.10;99.90;;;;;;5052832;28;20097;-78
2022/12/07 02:13:40;;;;;;;29.13;5.63;;;15.10;99.90;;;;;;5053382;28;20029;-78
2022/12/07 02:16:13;;;;;;;29.00;5.05;;;15.10;99.90;;;;;;5052990;28;20025;-78
2022/12/07 02:19:11;;;;;;;33.83;5.95;;;15.10;99.90;;;;;;5053320;28;20025;-78
2022/12/07 02:21:58;;;;;;;26.00;4.95;;;15.10;99.90;;;;;;5053062;28;20112;-78
2022/12/07 02:24:43;;;;;;;25.20;5.00;;;15.00;99.90;;;;;;5052800;28;20020;-77
2022/12/07 02:27:30;;;;;;;35.92;5.65;;;15.00;99.90;;;;;;5052849;28;20033;-77
2022/12/07 02:30:14;;;;;;;36.63;6.97;;;15.00;99.90;;;;;;5052815;28;20487;-77
2022/12/07 02:33:03;;;;;;;41.15;6.25;;;15.00;99.90;;;;;;5052895;28;20025;-78
2022/12/07 02:35:29;;;;;;;28.63;5.10;;;15.00;99.90;;;;;;5053110;28;20021;-77
2022/12/07 02:38:07;;;;;;;32.45;5.32;;;15.00;99.90;;;;;;5052691;28;20191;-77
2022/12/07 02:40:48;;;;;;;30.15;5.47;;;15.00;99.90;;;;;;5052454;28;20068;-78
2022/12/07 02:43:29;;;;;;;21.50;5.65;;;14.90;99.90;;;;;;5052500;28;20337;-78
2022/12/07 02:46:04;;;;;;;24.83;5.75;;;15.00;99.90;;;;;;5052649;28;20029;-78
2022/12/07 02:48:33;;;;;;;27.20;4.80;;;14.90;99.90;;;;;;5052393;28;20083;-77
2022/12/07 02:51:01;;;;;;;33.70;5.85;;;14.90;99.90;;;;;;5052384;28;20071;-78
2022/12/07 02:53:37;;;;;;;27.83;5.32;;;14.90;99.90;;;;;;5034387;28;20029;-78
2022/12/07 02:56:17;;;;;;;39.28;5.90;;;14.90;99.90;;;;;;5052610;28;20188;-77
2022/12/07 02:59:07;;;;;;;30.02;6.18;;;14.80;99.90;;;;;;5052507;28;20021;-78
2022/12/07 03:01:56;;;;;;;34.25;6.10;;;14.80;99.90;;;;;;5052502;28;20073;-78
2022/12/07 03:04:46;;;;;;;29.13;5.10;;;14.80;99.90;;;;;;5051843;28;20063;-78
2022/12/07 03:07:31;;;;;;;32.40;5.43;;;14.80;99.90;;;;;;5034712;28;20409;-78
2022/12/07 03:10:17;;;;;;;29.88;5.10;;;14.80;99.90;;;;;;5052132;28;20064;-78
2022/12/07 03:13:11;;;;;;;31.58;5.55;;;14.80;99.90;;;;;;5052001;28;20025;-78
2022/12/07 03:15:57;;;;;;;24.08;5.03;;;14.80;99.90;;;;;;5052414;28;20024;-78
2022/12/07 03:18:27;;;;;;;37.67;5.43;;;14.80;99.90;;;;;;5052323;28;20056;-78
2022/12/07 03:20:58;;;;;;;27.92;5.80;;;14.80;99.90;;;;;;5052163;28;20372;-79
2022/12/07 03:23:26;;;;;;;30.73;5.35;;;14.80;99.90;;;;;;5052456;28;20099;-79
2022/12/07 03:25:59;;;;;;;32.33;4.75;;;14.80;99.90;;;;;;5051576;28;20029;-78
2022/12/07 03:28:37;;;;;;;21.27;4.90;;;14.80;99.90;;;;;;5051675;28;20547;-77
2022/12/07 03:31:23;;;;;;;41.05;6.45;;;14.90;99.90;;;;;;5051689;28;20033;-77
2022/12/07 03:33:52;;;;;;;32.25;5.50;;;14.80;99.90;;;;;;5051743;28;20094;-78
2022/12/07 03:36:32;;;;;;;40.15;6.15;;;14.80;99.90;;;;;;5051479;28;20074;-77
2022/12/07 03:39:36;;;;;;;33.97;5.82;;;14.80;99.90;;;;;;5051126;28;20504;-77
2022/12/07 03:42:05;;;;;;;15.18;4.28;;;14.80;99.90;;;;;;4953873;28;20035;-77
2022/12/07 03:44:40;;;;;;;24.02;5.35;;;14.80;99.90;;;;;;4970715;28;20058;-77
2022/12/07 03:47:49;;;;;;;33.75;5.90;;;14.80;99.90;;;;;;4970478;28;20106;-78
2022/12/07 03:51:01;;;;;;;33.22;5.45;;;14.80;99.90;;;;;;4893954;29;20127;-78
2022/12/07 03:53:34;;;;;;;28.13;5.22;;;14.80;99.90;;;;;;4820974;29;20424;-78
2022/12/07 03:56:01;;;;;;;34.72;5.90;;;14.80;99.90;;;;;;4820726;29;20045;-79
2022/12/07 03:58:30;;;;;;;19.90;4.57;;;14.70;99.90;;;;;;4820800;29;20035;-78
2022/12/07 04:00:56;;;;;;;36.83;5.57;;;14.70;99.90;;;;;;4820666;29;20046;-78
2022/12/07 04:03:23;;;;;;;28.15;5.35;;;14.60;99.90;;;;;;4820396;29;20054;-78
2022/12/07 04:05:49;;;;;;;34.67;6.57;;;14.60;99.90;;;;;;4820654;29;20135;-78
2022/12/07 04:08:15;;;;;;;26.20;5.00;;;14.60;99.90;;;;;;4821206;29;20454;-79
2022/12/07 04:10:41;;;;;;;27.42;5.10;;;14.60;99.90;;;;;;4821059;29;20429;-79
2022/12/07 04:13:07;;;;;;;30.63;4.87;;;14.60;99.90;;;;;;4820923;29;20043;-79
2022/12/07 04:15:33;;;;;;;27.37;5.30;;;14.60;99.90;;;;;;4821153;29;20034;-78
2022/12/07 04:18:01;;;;;;;27.30;4.67;;;14.60;99.90;;;;;;4827076;29;20747;-80
2022/12/07 04:20:28;;;;;;;25.38;4.95;;;14.60;99.90;;;;;;4894936;29;20127;-78
2022/12/07 04:22:55;;;;;;;26.15;5.18;;;14.60;99.90;;;;;;4880517;28;20036;-78
2022/12/07 04:25:20;;;;;;;;;;;14.60;99.90;;;;;;4972013;28;20469;-78
2022/12/07 04:27:46;;;;;;;19.65;4.07;;;14.60;99.90;;;;;;5036135;28;19904;-78
2022/12/07 04:30:13;;;;;;;;;;;14.60;99.90;;;;;;5052085;28;20179;-78
2022/12/07 04:32:42;;;;;;;25.92;5.10;;;14.70;99.90;;;;;;5051739;28;19909;-78
2022/12/07 04:35:09;;;;;;;24.55;4.78;;;14.60;99.90;;;;;;5051691;28;20114;-78
2022/12/07 04:37:35;;;;;;;28.05;4.93;;;14.60;99.90;;;;;;5051753;28;20053;-78
2022/12/07 04:40:03;;;;;;;23.03;4.67;;;14.60;99.90;;;;;;5050458;28;20020;-78
2022/12/07 04:42:29;;;;;;;21.27;4.07;;;14.60;99.90;;;;;;5051527;28;20282;-77
2022/12/07 04:44:55;;;;;;;30.30;4.90;;;14.50;99.90;;;;;;5050288;28;20389;-78
2022/12/07 04:47:21;;;;;;;26.33;5.50;;;14.50;99.90;;;;;;5051986;28;20033;-78
2022/12/07 04:49:47;;;;;;;19.90;4.40;;;14.50;99.90;;;;;;5049517;28;20029;-77
2022/12/07 04:52:16;;;;;;;19.33;3.95;;;14.50;99.90;;;;;;5049684;28;20290;-78
2022/12/07 04:54:42;;;;;;;30.50;4.57;;;14.50;99.90;;;;;;5041521;28;20025;-78
2022/12/07 04:57:12;;;;;;;22.55;4.93;;;14.50;99.90;;;;;;5045771;28;20472;-77
2022/12/07 04:59:40;;;;;;;20.33;4.43;;;14.60;99.90;;;;;;5048700;28;20108;-78
2022/12/07 05:02:07;;;;;;;21.73;4.40;;;14.60;99.90;;;;;;5026983;28;20041;-76
2022/12/07 05:04:33;;;;;;;23.58;4.38;;;14.60;99.90;;;;;;5025715;28;20022;-77
2022/12/07 05:07:00;;;;;;;20.87;4.43;;;14.70;99.90;;;;;;5046063;28;20394;-76
2022/12/07 05:09:27;;;;;;;16.15;3.75;;;14.60;99.90;;;;;;5026259;28;20035;-79
2022/12/07 05:11:55;;;;;;;24.73;4.65;;;14.60;99.90;;;;;;5054954;28;20083;-79
2022/12/07 05:14:24;;;;;;;20.07;4.13;;;14.70;99.90;;;;;;5055848;28;20138;-82
2022/12/07 05:16:51;;;;;;;19.65;4.32;;;14.70;99.90;;;;;;5055760;28;20075;-81
2022/12/07 05:19:18;;;;;;;;;;;14.70;99.90;;;;;;5056519;28;20059;-81
2022/12/07 05:21:44;;;;;;;30.92;4.13;;;14.80;99.90;;;;;;5056203;28;19951;-81
2022/12/07 05:24:13;;;;;;;21.23;4.30;;;14.80;99.90;;;;;;5056155;28;20493;-80
2022/12/07 05:26:40;;;;;;;29.15;5.03;;;14.80;99.90;;;;;;5055879;28;20032;-81
2022/12/07 05:29:07;;;;;;;22.88;4.70;;;14.80;99.90;;;;;;5055843;28;20465;-80
2022/12/07 05:31:34;;;;;;;16.58;3.78;;;14.80;99.90;;;;;;5056479;28;20041;-80
2022/12/07 05:34:00;;;;;;;24.20;4.13;;;14.80;99.90;;;;;;5055227;28;20025;-78
2022/12/07 05:36:28;;;;;;;29.77;4.90;;;14.80;99.90;;;;;;5056237;28;20107;-83
2022/12/07 05:38:54;;;;;;;24.75;4.70;;;14.80;99.90;;;;;;5055725;28;20411;-83
2022/12/07 05:44:24;;;;;;;20.25;3.97;;;14.80;99.90;;;;;;5055629;28;20036;-84
2022/12/07 05:46:49;;;;;;;21.35;4.53;;;14.80;99.90;;;;;;5056035;28;20350;-84
2022/12/07 05:49:17;;;;;;;22.73;4.17;;;14.90;99.90;;;;;;5062784;22;20072;-80
2022/12/07 05:51:44;;;;;;;25.33;5.53;;;14.90;99.90;;;;;;5055938;28;20758;-85
2022/12/07 05:54:10;;;;;;;20.13;4.10;;;14.90;99.90;;;;;;5037258;28;20388;-86
2022/12/07 05:56:37;;;;;;;28.60;4.60;;;14.90;99.90;;;;;;5055893;28;20047;-84
2022/12/07 06:01:53;;;;;;;17.95;3.92;;;15.00;99.90;;;;;;5055106;28;20503;-83
2022/12/07 06:04:21;;;;;;;19.42;3.63;;;15.10;99.90;;;;;;5055479;28;20103;-83
2022/12/07 06:06:59;;;;;;;24.30;4.15;;;15.20;99.90;;;;;;5037097;28;20029;-85
2022/12/07 06:09:35;;;;;;;26.00;4.10;;;15.20;99.90;;;;;;5053801;28;20024;-85
2022/12/07 06:14:56;;;;;;;26.58;4.50;;;15.20;99.90;;;;;;5061869;22;20155;-86
2022/12/07 06:17:23;;;;;;;25.55;4.00;;;15.10;99.90;;;;;;5053492;28;20133;-85
2022/12/07 06:19:49;;;;;;;23.85;3.85;;;15.10;99.90;;;;;;5053508;28;20495;-86
2022/12/07 06:22:20;;;;;;;25.85;4.60;;;15.20;99.90;;;;;;5053653;28;20087;-85
2022/12/07 06:24:51;;;;;;;24.23;4.22;;;15.20;99.90;;;;;;5061082;22;20057;-87
2022/12/07 06:27:19;;;;;;;26.73;4.50;;;15.20;99.90;;;;;;5054319;28;20102;-87
2022/12/07 06:29:46;;;;;;;22.98;4.03;;;15.20;99.90;;;;;;5054214;28;20025;-87
2022/12/07 06:32:14;;;;;;;23.08;4.20;;;15.20;99.90;;;;;;5035773;28;20095;-86
2022/12/07 06:34:44;;;;;;;26.85;4.43;;;15.20;99.90;;;;;;5054716;28;20057;-86
2022/12/07 06:37:20;;;;;;;25.58;4.63;;;15.20;99.90;;;;;;5060983;22;20135;-87
2022/12/07 06:39:46;;;;;;;21.25;4.15;;;15.20;99.90;;;;;;5055644;28;20071;-86
2022/12/07 06:44:49;;;;;;;23.95;4.40;;;15.20;99.90;;;;;;4848458;26;20494;-85
2022/12/07 06:47:16;;;;;;;20.25;4.07;;;15.30;99.90;;;;;;5000779;28;20045;-84
2022/12/07 06:49:52;;;;;;;29.63;4.70;;;15.30;99.90;;;;;;5034107;28;20104;-86
2022/12/07 06:52:23;;;;;;;19.58;4.10;;;15.40;99.90;;;;;;5034119;28;20040;-86
2022/12/07 06:54:51;;;;;;;22.73;5.05;;;15.50;99.90;;;;;;5033703;28;20017;-86
2022/12/07 06:57:17;;;;;;;32.17;5.53;;;15.50;99.90;;;;;;5034445;28;20041;-84
2022/12/07 06:59:43;;;;;;;29.35;5.68;;;15.60;99.90;;;;;;5034397;28;20105;-84
2022/12/07 07:02:10;;;;;;;34.00;5.25;;;15.70;99.90;;;;;;5041469;22;20058;-86
2022/12/07 07:04:36;;;;;;;30.58;5.00;;;15.70;99.90;;;;;;5036758;28;20036;-85
2022/12/07 07:07:11;;;;;;;23.10;4.80;;;15.80;99.90;;;;;;5014566;28;20030;-86
2022/12/07 07:09:37;;;;;;;25.75;4.72;;;15.90;99.90;;;;;;4998040;28;20096;-85
2022/12/07 07:12:06;;;;;;;22.52;4.55;;;16.00;99.90;;;;;;5026245;28;20037;-85
2022/12/07 07:14:32;;;;;;;28.92;4.28;;;16.10;99.90;;;;;;5033598;28;20116;-86
2022/12/07 07:16:58;;;;;;;35.75;6.85;;;16.30;99.90;;;;;;5033136;28;20029;-85
2022/12/07 07:19:24;;;;;;;27.35;4.50;;;16.50;99.90;;;;;;5033268;28;20048;-80
2022/12/07 07:21:50;;;;;;;30.93;5.10;;;16.60;99.90;;;;;;5025647;28;20058;-83
2022/12/07 07:24:16;;;;;;;30.52;6.10;;;16.80;99.90;;;;;;5007270;28;20268;-83
2022/12/07 07:26:43;;;;;;;27.50;5.70;;;17.10;99.90;;;;;;5033044;28;20104;-83
2022/12/07 07:29:09;;;;;;;21.80;4.95;;;17.30;99.90;;;;;;5016343;28;20034;-84
2022/12/07 07:31:35;;;;;;;27.77;4.55;;;17.60;99.90;;;;;;5033056;28;20104;-83
2022/12/07 07:34:03;;;;;;;25.80;4.80;;;17.90;99.90;;;;;;5032808;28;20429;-82
2022/12/07 07:36:29;;;;;;;24.52;4.60;;;18.10;99.90;;;;;;5032705;28;20025;-80
2022/12/07 07:38:55;;;;;;;30.15;5.10;;;18.40;99.90;;;;;;5031572;28;20111;-82
2022/12/07 07:41:21;;;;;;;28.85;5.03;;;18.60;99.90;;;;;;5014799;28;20077;-82
2022/12/07 07:43:47;;;;;;;35.78;4.60;;;18.70;99.90;;;;;;5033606;28;20078;-81
2022/12/07 07:46:14;;;;;;;23.38;4.18;;;18.90;99.90;;;;;;5033183;28;20029;-83
2022/12/07 07:48:40;;;;;;;24.02;3.80;;;19.00;99.90;;;;;;5032901;28;20388;-83
2022/12/07 07:51:07;;;;;;;23.63;3.88;;;19.20;99.90;;;;;;5033063;28;20038;-82
2022/12/07 07:53:35;;;;;;;24.77;4.18;;;19.30;99.90;;;;;;5032656;28;20022;-82
2022/12/07 07:56:01;;;;;;;19.83;3.88;;;19.40;99.90;;;;;;5033016;28;20032;-82
2022/12/07 07:58:29;;;;;;;26.67;4.32;;;19.50;99.90;;;;;;5033050;28;20029;-81
2022/12/07 08:00:57;;;;;;;34.70;9.90;;;19.50;99.90;;;;;;5032571;28;20084;-81
2022/12/07 08:03:23;;;;;;;28.27;5.35;;;19.70;99.90;;;;;;5032830;28;20133;-81
2022/12/07 08:05:50;;;;;;;30.83;4.15;;;19.80;99.90;;;;;;5032915;28;20033;-81
2022/12/07 08:08:16;;;;;;;23.02;4.90;;;20.00;99.90;;;;;;5032565;28;20044;-81
2022/12/07 08:10:42;;;;;;;24.40;4.72;;;20.00;99.90;;;;;;5033042;28;20083;-82
2022/12/07 08:13:11;;;;;;;34.75;5.30;;;20.10;99.90;;;;;;5032395;28;20029;-82
2022/12/07 08:15:43;;;;;;;24.08;4.55;;;20.00;99.90;;;;;;5032019;28;20057;-82
2022/12/07 08:18:10;;;;;;;26.25;4.20;;;20.10;99.90;;;;;;5032599;28;20378;-82
2022/12/07 08:20:36;;;;;;;;;;;20.10;99.90;;;;;;5032376;28;20477;-80
2022/12/07 08:23:02;;;;;;;;;;;20.10;99.90;;;;;;5032811;28;19909;-82
2022/12/07 08:25:28;;;;;;;32.90;4.60;;;20.10;99.90;;;;;;5031891;28;20062;-82
2022/12/07 08:27:54;;;;;;;24.67;4.15;;;20.10;99.90;;;;;;5032166;28;20036;-82
2022/12/07 08:30:21;;;;;;;23.83;4.50;;;20.10;99.90;;;;;;5032299;28;20108;-82
2022/12/07 08:32:59;;;;;;;28.92;4.43;;;20.10;99.90;;;;;;5032169;28;20032;-81
2022/12/07 08:35:26;;;;;;;34.25;7.57;;;20.20;99.90;;;;;;5031869;28;20141;-82
2022/12/07 08:37:57;;;;;;;27.83;4.35;;;20.20;99.90;;;;;;5031787;28;20033;-82
2022/12/07 08:40:31;;;;;;;25.60;4.10;;;20.20;99.90;;;;;;5031827;28;20595;-82
2022/12/07 08:42:59;;;;;;;26.65;4.78;;;20.20;99.90;;;;;;5013834;28;20040;-82
2022/12/07 08:45:27;;;;;;;26.52;3.95;;;20.10;99.90;;;;;;5032481;28;20187;-82
2022/12/07 08:48:02;;;;;;;28.48;4.25;;;20.10;99.90;;;;;;5031905;28;20045;-82
2022/12/07 08:50:29;;;;;;;23.88;4.05;;;19.90;99.90;;;;;;5031617;28;20034;-82
2022/12/07 08:52:58;;;;;;;30.52;4.53;;;19.80;99.90;;;;;;5013441;28;20022;-83
2022/12/07 08:55:27;;;;;;;26.98;3.95;;;19.70;99.90;;;;;;5031158;28;20363;-83
2022/12/07 08:57:54;;;;;;;27.80;4.30;;;19.70;99.90;;;;;;5031228;28;20036;-81
2022/12/07 09:00:21;;;;;;;26.92;4.55;;;19.80;99.90;;;;;;5030708;28;20049;-82
2022/12/07 09:02:47;;;;;;;20.40;5.03;;;20.00;99.90;;;;;;5030481;28;20132;-81
2022/12/07 09:05:17;;;;;;;26.50;4.90;;;20.10;99.90;;;;;;5030860;28;20022;-83
2022/12/07 09:07:47;;;;;;;34.42;4.88;;;20.30;99.90;;;;;;5030402;28;20056;-83
2022/12/07 09:10:59;;;;;;;29.98;4.70;;;20.30;99.90;;;;;;5030994;28;20030;-83
2022/12/07 09:13:26;;;;;;;28.35;4.40;;;20.40;99.90;;;;;;5031720;28;20017;-83
2022/12/07 09:15:53;;;;;;;27.70;4.97;;;20.50;99.90;;;;;;5031990;28;20034;-83
2022/12/07 09:18:19;;;;;;;28.90;4.00;;;20.60;99.90;;;;;;5013938;28;20029;-84
2022/12/07 09:20:45;;;;;;;26.45;4.32;;;20.60;99.90;;;;;;5031152;28;20021;-84
2022/12/07 09:23:12;;;;;;;25.50;3.85;;;20.70;99.90;;;;;;5032263;28;20018;-83
2022/12/07 09:25:39;;;;;;;27.20;4.47;;;20.70;99.90;;;;;;5032719;28;20037;-83
2022/12/07 09:28:05;;;;;;;31.13;5.45;;;20.70;99.90;;;;;;5032724;28;20052;-85
2022/12/07 09:30:31;;;;;;;24.95;4.35;;;20.80;99.90;;;;;;5032726;28;20033;-85
2022/12/07 09:32:58;;;;;;;24.95;4.30;;;20.80;99.90;;;;;;5033117;28;20026;-83
2022/12/07 09:35:25;;;;;;;26.25;4.35;;;20.60;99.90;;;;;;5009103;28;20387;-83
2022/12/07 09:37:53;;;;;;;24.63;4.03;;;20.60;99.90;;;;;;5022489;28;20037;-84
2022/12/07 09:40:22;;;;;;;25.02;4.20;;;20.60;99.90;;;;;;5031676;28;20428;-85
2022/12/07 09:42:53;;;;;;;30.92;4.50;;;20.60;99.90;;;;;;5031320;28;20040;-84
2022/12/07 09:45:32;;;;;;;33.70;4.72;;;20.60;99.90;;;;;;5031915;28;20079;-84
2022/12/07 09:47:59;;;;;;;29.95;4.50;;;20.60;99.90;;;;;;5031836;28;20036;-83
2022/12/07 09:50:27;;;;;;;28.55;4.30;;;20.50;99.90;;;;;;5032740;28;20034;-84
2022/12/07 09:53:13;;;;;;;21.38;4.25;;;20.70;99.90;;;;;;5034452;28;20052;-84
2022/12/07 09:55:43;;;;;;;33.15;4.82;;;20.70;99.90;;;;;;5039735;28;20454;-84
2022/12/07 09:58:26;;;;;;;25.10;4.07;;;20.70;99.90;;;;;;5013146;28;20509;-83
2022/12/07 10:01:05;;;;;;;30.95;4.15;;;20.50;99.90;;;;;;5027673;28;20430;-83
2022/12/07 10:03:31;;;;;;;29.65;5.15;;;20.20;99.90;;;;;;5033771;28;20069;-85
2022/12/07 10:06:02;;;;;;;35.00;5.00;;;20.00;99.90;;;;;;5034230;28;20108;-86
2022/12/07 10:08:29;;;;;;;30.70;4.20;;;20.30;99.90;;;;;;5034705;28;20155;-92
2022/12/07 10:11:01;;;;;;;32.15;4.63;;;20.20;99.90;;;;;;5016274;28;20038;-85
2022/12/07 10:13:48;;;;;;;32.58;5.22;;;19.90;99.90;;;;;;5034715;28;20021;-90
2022/12/07 10:16:32;;;;;;;28.40;4.30;;;20.00;99.90;;;;;;5032258;28;20025;-81
2022/12/07 10:19:27;;;;;;;28.45;4.63;;;19.70;99.90;;;;;;5034044;28;20393;-84
2022/12/07 10:22:25;;;;;;;31.75;4.38;;;19.90;99.90;;;;;;5033556;28;20025;-81
2022/12/07 10:24:51;;;;;;;32.53;4.80;;;20.00;99.90;;;;;;5032932;28;20044;-82
2022/12/07 10:27:26;;;;;;;24.83;4.05;;;20.00;99.90;;;;;;5033745;28;20025;-86
2022/12/07 10:29:53;;;;;;;26.92;4.22;;;20.30;99.90;;;;;;5033984;28;20021;-82
2022/12/07 10:32:19;;;;;;;28.33;4.57;;;20.30;99.90;;;;;;5033981;28;20413;-87
2022/12/07 10:34:46;;;;;;;29.50;4.20;;;20.60;99.90;;;;;;5034370;28;20086;-86
2022/12/07 10:37:19;;;;;;;29.65;7.35;;;20.70;99.90;;;;;;5034087;28;20030;-86
2022/12/07 10:39:55;;;;;;;33.72;4.50;;;20.80;99.90;;;;;;5033474;28;20381;-86
2022/12/07 10:42:33;;;;;;;28.55;4.60;;;20.80;99.90;;;;;;5033118;28;20030;-87
2022/12/07 10:45:17;;;;;;;36.60;4.85;;;20.90;99.90;;;;;;5032969;28;20030;-86
2022/12/07 10:48:01;;;;;;;26.35;4.43;;;21.10;99.90;;;;;;5015089;28;20026;-86
2022/12/07 10:51:05;;;;;;;32.25;5.47;;;21.20;99.90;;;;;;5032863;28;20109;-85
2022/12/07 10:53:49;;;;;;;28.50;4.22;;;21.00;99.90;;;;;;5032980;28;20075;-84
2022/12/07 10:56:44;;;;;;;26.13;4.20;;;20.80;99.90;;;;;;5014967;28;20029;-85
2022/12/07 10:59:44;;;;;;;24.97;4.97;;;20.60;99.90;;;;;;5033104;28;20024;-85
2022/12/07 11:02:54;;;;;;;28.55;4.40;;;20.60;99.90;;;;;;5032080;28;20136;-85
2022/12/07 11:06:15;;;;;;;30.63;4.28;;;20.70;99.90;;;;;;5010933;28;20030;-85
2022/12/07 11:09:05;;;;;;;27.45;4.60;;;20.70;99.90;;;;;;5002615;28;20421;-85
2022/12/07 11:11:42;;;;;;;25.10;4.05;;;20.70;99.90;;;;;;5011008;28;20205;-86
2022/12/07 11:14:56;;;;;;;32.95;4.97;;;20.90;99.90;;;;;;5010847;28;20034;-86
2022/12/07 11:17:31;;;;;;;33.27;5.60;;;21.00;99.90;;;;;;4953215;29;20039;-85
2022/12/07 11:20:18;;;;;;;29.52;4.30;;;21.10;99.90;;;;;;4953041;29;20087;-83
2022/12/07 11:23:32;;;;;;;29.50;4.72;;;21.20;99.90;;;;;;4936851;29;20396;-86
2022/12/07 11:26:07;;;;;;;25.70;4.88;;;21.30;99.90;;;;;;4952865;28;20030;-86
2022/12/07 11:29:04;;;;;;;31.75;4.75;;;21.30;99.90;;;;;;4936688;29;20102;-85
2022/12/07 11:31:48;;;;;;;30.23;4.45;;;20.80;99.90;;;;;;4952579;29;20043;-84
2022/12/07 11:34:57;;;;;;;30.73;4.40;;;20.30;99.90;;;;;;4953108;29;20059;-85
2022/12/07 11:37:43;;;;;;;29.05;4.65;;;20.20;99.90;;;;;;4952929;29;20122;-85
2022/12/07 11:40:35;;;;;;;35.10;4.75;;;20.10;99.90;;;;;;4979973;28;20046;-84
2022/12/07 11:43:40;;;;;;;31.70;4.90;;;20.30;99.90;;;;;;4991835;28;20094;-85
2022/12/07 11:46:15;;;;;;;31.60;5.60;;;20.60;99.90;;;;;;4905917;29;20036;-85
2022/12/07 11:48:52;;;;;;;30.48;5.90;;;20.70;99.90;;;;;;4917864;29;20062;-84
2022/12/07 11:51:20;;;;;;;32.42;5.57;;;20.90;99.90;;;;;;4914385;29;20460;-84
2022/12/07 11:54:03;;;;;;;29.65;5.55;;;20.90;99.90;;;;;;4950868;29;20032;-83
2022/12/07 11:56:30;;;;;;;32.35;4.85;;;20.90;99.90;;;;;;4952994;29;20046;-83
2022/12/07 11:59:36;;;;;;;34.03;5.60;;;21.00;99.90;;;;;;4952412;29;20134;-83
2022/12/07 12:02:01;;;;;;;;;;;21.10;99.90;;;;;;4933540;29;20039;-83
2022/12/07 12:04:58;;;;;;;29.10;5.78;;;21.20;99.90;;;;;;4934077;29;19928;-83
2022/12/07 12:07:33;;;;;;;35.20;5.25;;;21.30;99.90;;;;;;4933969;29;20052;-83
2022/12/07 12:10:13;;;;;;;42.25;5.97;;;21.30;99.90;;;;;;4933798;29;20040;-83
2022/12/07 12:13:01;;;;;;;34.03;6.25;;;21.40;99.90;;;;;;4932664;29;20040;-82
2022/12/07 12:16:01;;;;;;;29.30;5.78;;;21.40;99.90;;;;;;4933216;29;20046;-84
2022/12/07 12:18:54;;;;;;;41.83;5.57;;;21.50;99.90;;;;;;4932917;29;20075;-82
2022/12/07 12:21:28;;;;;;;30.42;4.97;;;21.60;99.90;;;;;;4933194;29;20399;-84
2022/12/07 12:24:09;;;;;;;27.42;4.78;;;21.50;99.90;;;;;;4980678;28;20046;-84
2022/12/07 12:26:37;;;;;;;35.42;5.05;;;21.30;99.90;;;;;;4991797;28;20046;-83
2022/12/07 12:29:19;;;;;;;29.67;4.63;;;21.20;99.90;;;;;;4991550;28;20114;-83
2022/12/07 12:32:04;;;;;;;34.78;5.50;;;21.20;99.90;;;;;;4974819;28;20505;-82
2022/12/07 12:34:38;;;;;;;46.00;6.32;;;21.20;99.90;;;;;;4991550;28;20034;-83
2022/12/07 12:37:32;;;;;;;38.08;5.53;;;21.20;99.90;;;;;;4991561;28;20034;-82
2022/12/07 12:40:16;;;;;;;37.67;5.75;;;21.30;99.90;;;;;;5012794;28;20021;-84
2022/12/07 12:42:56;;;;;;;36.70;5.80;;;21.40;99.90;;;;;;5012320;28;20127;-84
2022/12/07 12:45:30;;;;;;;31.00;4.63;;;21.40;99.90;;;;;;5012779;28;20489;-83
2022/12/07 12:48:00;;;;;;;38.88;4.82;;;21.40;99.90;;;;;;5012781;28;20030;-84
2022/12/07 12:50:38;;;;;;;32.65;5.43;;;21.50;99.90;;;;;;5011897;28;20044;-83
2022/12/07 12:53:16;;;;;;;40.58;6.00;;;21.50;99.90;;;;;;5012198;28;20048;-82
2022/12/07 12:56:08;;;;;;;35.35;5.55;;;21.20;99.90;;;;;;5013068;28;20427;-81
2022/12/07 12:58:40;;;;;;;45.28;5.57;;;21.10;99.90;;;;;;5012806;28;20018;-82
2022/12/07 13:01:52;;;;;;;41.88;5.63;;;21.10;99.90;;;;;;5012379;28;20038;-81
2022/12/07 13:04:49;;;;;;;43.30;6.68;;;21.20;99.90;;;;;;4996579;28;20046;-73
2022/12/07 13:07:57;;;;;;;42.40;6.53;;;21.10;99.90;;;;;;5000722;28;20046;-80
2022/12/07 13:10:29;;;;;;;45.33;6.82;;;21.10;99.90;;;;;;5011945;28;20489;-79
2022/12/07 13:13:10;;;;;;;41.03;6.15;;;21.20;99.90;;;;;;5012776;28;20034;-79
2022/12/07 13:16:16;;;;;;;38.25;5.80;;;21.00;99.90;;;;;;4994937;28;20030;-80
2022/12/07 13:18:44;;;;;;;;;;;21.00;99.90;;;;;;5013544;28;20041;-80
2022/12/07 13:21:14;;;;;;;32.90;4.78;;;21.00;99.90;;;;;;5012392;28;19933;-79
2022/12/07 13:23:50;;;;;;;48.90;6.15;;;21.10;99.90;;;;;;4995506;28;20441;-81